Time;durP1;ratioP1;P1;durP2;ratioP2;P2;SDS_P1;SDS_P2;PMS_P1;PMS_P2;Temp;Humidity;BMP_temperature;BMP_pressure;BME280_temperature;BME280_humidity;BME280_pressure;Samples;Min_cycle;Max_cycle;Signal;HPM_P1;HPM_P2
2023/03/28 00:00:45;;;;;;;5.70;2.00;;;;;;;;;;5066161;28;20211;-74
2023/03/28 00:03:13;;;;;;;4.00;1.80;;;;;;;;;;5065707;28;20269;-74
2023/03/28 00:05:40;;;;;;;5.53;2.00;;;;;;;;;;5066734;28;20227;-74
2023/03/28 00:08:08;;;;;;;3.07;1.70;;;;;;;;;;5067765;28;20202;-74
2023/03/28 00:10:35;;;;;;;4.07;1.93;;;;;;;;;;5067565;28;20252;-74
2023/03/28 00:13:02;;;;;;;4.30;1.80;;;;;;;;;;5066913;28;20199;-74
2023/03/28 00:15:29;;;;;;;3.30;1.90;;;;;;;;;;5064548;28;20214;-74
2023/03/28 00:18:00;;;;;;;5.50;2.03;;;;;;;;;;5067664;28;20207;-72
2023/03/28 00:20:28;;;;;;;6.53;2.10;;;;;;;;;;5063844;28;20198;-64
2023/03/28 00:22:55;;;;;;;6.50;2.07;;;;;;;;;;5067904;28;20226;-64
2023/03/28 00:25:22;;;;;;;4.97;2.00;;;;;;;;;;5066957;28;20210;-64
2023/03/28 00:27:50;;;;;;;5.33;2.37;;;;;;;;;;5067185;28;20209;-64
2023/03/28 00:30:17;;;;;;;7.33;2.23;;;;;;;;;;5068022;28;20242;-64
2023/03/28 00:32:44;;;;;;;2.73;1.80;;;;;;;;;;5068293;28;20195;-64
2023/03/28 00:35:13;;;;;;;3.93;1.70;;;;;;;;;;5067924;28;20211;-64
2023/03/28 00:37:40;;;;;;;4.93;1.70;;;;;;;;;;5066559;28;20203;-64
2023/03/28 00:40:08;;;;;;;3.83;1.67;;;;;;;;;;5066995;28;20198;-64
2023/03/28 00:42:35;;;;;;;3.10;1.60;;;;;;;;;;5067525;28;20218;-64
2023/03/28 00:45:03;;;;;;;4.63;2.07;;;;;;;;;;5067544;28;20325;-64
2023/03/28 00:47:36;;;;;;;3.07;1.70;;;;;;;;;;5066212;28;20202;-64
2023/03/28 00:50:05;;;;;;;4.93;1.80;;;;;;;;;;5071153;28;20233;-64
2023/03/28 00:52:38;;;;;;;4.40;1.90;;;;;;;;;;5067334;28;20198;-64
2023/03/28 00:55:08;;;;;;;4.83;1.70;;;;;;;;;;5067043;28;20218;-64
2023/03/28 00:57:37;;;;;;;3.30;1.97;;;;;;;;;;5064530;28;20234;-64
2023/03/28 01:00:05;;;;;;;3.10;1.87;;;;;;;;;;5065417;28;20202;-64
2023/03/28 01:02:32;;;;;;;2.37;1.80;;;;;;;;;;5068188;28;20277;-64
2023/03/28 01:05:02;;;;;;;5.23;1.83;;;;;;;;;;5071718;28;20210;-64
2023/03/28 01:07:34;;;;;;;5.83;2.10;;;;;;;;;;5071142;28;20203;-64
2023/03/28 01:10:03;;;;;;;3.70;1.90;;;;;;;;;;5067575;28;20236;-64
2023/03/28 01:12:32;;;;;;;4.93;1.83;;;;;;;;;;5067157;28;20199;-64
2023/03/28 01:15:00;;;;;;;5.83;1.80;;;;;;;;;;5062508;28;20229;-64
2023/03/28 01:17:29;;;;;;;5.37;2.13;;;;;;;;;;5062250;28;20253;-64
2023/03/28 01:20:00;;;;;;;4.53;1.90;;;;;;;;;;5065887;22;20266;-90
2023/03/28 01:22:42;;;;;;;3.90;1.83;;;;;;;;;;5044145;28;20228;-92
2023/03/28 01:25:30;;;;;;;5.47;2.30;;;;;;;;;;5046736;28;20277;-92
2023/03/28 01:28:02;;;;;;;4.27;1.80;;;;;;;;;;5044711;28;20208;-91
2023/03/28 01:30:35;;;;;;;4.70;1.90;;;;;;;;;;5046716;28;20200;-91
2023/03/28 01:33:13;;;;;;;3.07;1.77;;;;;;;;;;5044133;28;20218;-90
2023/03/28 01:36:01;;;;;;;4.73;1.97;;;;;;;;;;5048953;28;20209;-92
2023/03/28 01:38:33;;;;;;;4.27;1.90;;;;;;;;;;5053545;28;20219;-92
2023/03/28 01:41:04;;;;;;;4.70;1.83;;;;;;;;;;5046531;28;20231;-91
2023/03/28 01:43:34;;;;;;;4.00;2.10;;;;;;;;;;5039919;28;20235;-90
2023/03/28 01:46:06;;;;;;;3.77;1.73;;;;;;;;;;5035236;28;20204;-90
2023/03/28 01:48:37;;;;;;;5.57;2.20;;;;;;;;;;5035513;28;20200;-89
2023/03/28 01:51:07;;;;;;;4.77;1.80;;;;;;;;;;5035971;28;20205;-91
2023/03/28 01:53:41;;;;;;;5.60;2.13;;;;;;;;;;5042125;28;20204;-90
2023/03/28 01:56:12;;;;;;;5.73;2.77;;;;;;;;;;5040173;28;20203;-91
2023/03/28 01:58:43;;;;;;;5.67;1.90;;;;;;;;;;5045757;28;20195;-92
2023/03/28 02:01:13;;;;;;;4.63;2.03;;;;;;;;;;5048860;28;20214;-92
2023/03/28 02:03:42;;;;;;;4.47;1.83;;;;;;;;;;5051210;28;20309;-91
2023/03/28 02:06:10;;;;;;;8.37;2.17;;;;;;;;;;5046656;28;20220;-91
2023/03/28 02:08:41;;;;;;;8.90;2.17;;;;;;;;;;5046478;28;20206;-91
2023/03/28 02:11:09;;;;;;;2.83;1.80;;;;;;;;;;5051462;28;20203;-92
2023/03/28 02:13:38;;;;;;;2.43;1.67;;;;;;;;;;5045374;28;20199;-89
2023/03/28 02:16:06;;;;;;;4.93;1.90;;;;;;;;;;5049969;28;20199;-91
2023/03/28 02:18:35;;;;;;;4.67;2.10;;;;;;;;;;5052100;28;20200;-92
2023/03/28 02:21:06;;;;;;;5.23;1.90;;;;;;;;;;5049727;28;20223;-92
2023/03/28 02:23:36;;;;;;;5.40;1.97;;;;;;;;;;5048379;28;20223;-92
2023/03/28 02:26:06;;;;;;;6.37;2.33;;;;;;;;;;5047649;28;20207;-91
2023/03/28 02:28:35;;;;;;;5.37;2.33;;;;;;;;;;5044061;28;20277;-92
2023/03/28 02:31:02;;;;;;;4.60;2.00;;;;;;;;;;5048990;28;20195;-92
2023/03/28 02:33:33;;;;;;;4.03;1.87;;;;;;;;;;5046241;28;20208;-92
2023/03/28 02:36:06;;;;;;;2.93;1.90;;;;;;;;;;5048738;28;20211;-92
2023/03/28 02:38:36;;;;;;;2.20;2.00;;;;;;;;;;5051256;28;20278;-92
2023/03/28 02:41:07;;;;;;;4.33;2.00;;;;;;;;;;5038962;28;20222;-91
2023/03/28 02:43:51;;;;;;;4.27;1.93;;;;;;;;;;5052186;28;20237;-92
2023/03/28 02:46:28;;;;;;;2.50;1.60;;;;;;;;;;5053942;28;20234;-91
2023/03/28 02:49:10;;;;;;;3.73;2.23;;;;;;;;;;5040679;28;20198;-91
2023/03/28 02:51:41;;;;;;;4.60;1.80;;;;;;;;;;5044644;28;20202;-91
2023/03/28 02:54:16;;;;;;;5.00;2.00;;;;;;;;;;5047805;28;20294;-92
2023/03/28 02:56:49;;;;;;;2.17;1.70;;;;;;;;;;5042657;28;20210;-92
2023/03/28 02:59:23;;;;;;;7.37;2.20;;;;;;;;;;5043676;28;20279;-92
2023/03/28 03:01:51;;;;;;;3.40;1.70;;;;;;;;;;5041354;28;20241;-92
2023/03/28 03:04:19;;;;;;;5.57;2.33;;;;;;;;;;5048815;28;20231;-92
2023/03/28 03:06:47;;;;;;;5.33;1.97;;;;;;;;;;5048643;28;20203;-91
2023/03/28 03:09:14;;;;;;;7.40;2.37;;;;;;;;;;5042401;28;20227;-92
2023/03/28 03:11:41;;;;;;;5.00;2.00;;;;;;;;;;5041452;28;20239;-92
2023/03/28 03:14:09;;;;;;;4.30;2.33;;;;;;;;;;5044105;28;20217;-91
2023/03/28 03:16:38;;;;;;;3.73;2.17;;;;;;;;;;5035807;28;20238;-92
2023/03/28 03:19:06;;;;;;;4.27;2.70;;;;;;;;;;5043853;28;20261;-92
2023/03/28 03:21:35;;;;;;;4.70;2.20;;;;;;;;;;5044000;28;20271;-92
2023/03/28 03:24:03;;;;;;;6.80;2.10;;;;;;;;;;5050925;28;20243;-92
2023/03/28 03:26:30;;;;;;;6.27;2.33;;;;;;;;;;5054763;28;20283;-92
2023/03/28 03:28:57;;;;;;;6.43;2.80;;;;;;;;;;5040717;28;20220;-92
2023/03/28 03:31:25;;;;;;;2.77;1.83;;;;;;;;;;5052167;28;20210;-91
2023/03/28 03:33:54;;;;;;;4.07;2.10;;;;;;;;;;5053437;28;20263;-92
2023/03/28 03:36:21;;;;;;;4.83;2.03;;;;;;;;;;5045239;28;20203;-91
2023/03/28 03:38:49;;;;;;;6.27;2.00;;;;;;;;;;5046122;28;20207;-91
2023/03/28 03:41:16;;;;;;;6.47;2.00;;;;;;;;;;5044727;28;20211;-92
2023/03/28 03:43:44;;;;;;;2.90;2.03;;;;;;;;;;5042560;28;20234;-92
2023/03/28 03:46:11;;;;;;;5.60;2.00;;;;;;;;;;5039677;28;20665;-92
2023/03/28 03:48:38;;;;;;;5.57;2.10;;;;;;;;;;5049443;28;20199;-91
2023/03/28 03:51:08;;;;;;;5.37;2.53;;;;;;;;;;5048222;28;20196;-91
2023/03/28 03:53:36;;;;;;;4.20;2.20;;;;;;;;;;5043080;28;20260;-92
2023/03/28 03:56:03;;;;;;;3.37;2.17;;;;;;;;;;5052116;28;20203;-91
2023/03/28 03:58:31;;;;;;;5.33;2.40;;;;;;;;;;5047640;28;20223;-92
2023/03/28 04:00:58;;;;;;;3.53;2.30;;;;;;;;;;5046451;28;20211;-92
2023/03/28 04:03:25;;;;;;;5.77;2.43;;;;;;;;;;5040798;28;20259;-91
2023/03/28 04:05:53;;;;;;;4.87;2.50;;;;;;;;;;5042467;28;20194;-92
2023/03/28 04:08:22;;;;;;;2.77;2.00;;;;;;;;;;5047402;28;20204;-92
2023/03/28 04:10:50;;;;;;;5.17;2.10;;;;;;;;;;5046835;28;20204;-92
2023/03/28 04:13:17;;;;;;;4.83;2.40;;;;;;;;;;5040473;28;20214;-93
2023/03/28 04:15:46;;;;;;;5.47;2.90;;;;;;;;;;5039592;28;20206;-93
2023/03/28 04:18:16;;;;;;;7.53;2.80;;;;;;;;;;5044103;28;20188;-92
2023/03/28 04:20:45;;;;;;;6.37;2.37;;;;;;;;;;5041457;28;20330;-90
2023/03/28 04:23:17;;;;;;;8.03;2.93;;;;;;;;;;5041517;28;20314;-92
2023/03/28 04:25:48;;;;;;;5.57;2.47;;;;;;;;;;5048814;28;20222;-90
2023/03/28 04:28:16;;;;;;;5.97;2.60;;;;;;;;;;5042424;28;20228;-92
2023/03/28 04:30:43;;;;;;;5.00;2.37;;;;;;;;;;5039811;28;20211;-92
2023/03/28 04:33:13;;;;;;;4.70;2.17;;;;;;;;;;5047935;28;20237;-92
2023/03/28 04:35:45;;;;;;;4.60;2.43;;;;;;;;;;5048908;28;20208;-93
2023/03/28 04:38:16;;;;;;;4.03;2.30;;;;;;;;;;5046209;28;20207;-92
2023/03/28 04:40:45;;;;;;;5.20;2.70;;;;;;;;;;5048223;28;20203;-93
2023/03/28 04:43:14;;;;;;;5.93;2.70;;;;;;;;;;5046483;28;20196;-94
2023/03/28 04:45:43;;;;;;;5.40;2.30;;;;;;;;;;5045668;28;20208;-92
2023/03/28 04:48:11;;;;;;;4.67;2.70;;;;;;;;;;5051291;28;20203;-93
2023/03/28 04:50:38;;;;;;;5.43;2.73;;;;;;;;;;5050111;28;20198;-95
2023/03/28 04:53:05;;;;;;;7.37;3.33;;;;;;;;;;5051750;28;20215;-93
2023/03/28 04:55:33;;;;;;;7.07;2.77;;;;;;;;;;5054757;28;20215;-93
2023/03/28 04:58:00;;;;;;;3.77;2.70;;;;;;;;;;5051065;28;20207;-93
2023/03/28 05:00:29;;;;;;;4.00;2.77;;;;;;;;;;5049897;28;20289;-90
2023/03/28 05:02:58;;;;;;;8.70;3.33;;;;;;;;;;5045527;28;20208;-91
2023/03/28 05:05:26;;;;;;;5.20;3.10;;;;;;;;;;5052437;28;20300;-93
2023/03/28 05:07:53;;;;;;;4.97;3.47;;;;;;;;;;5051522;28;20231;-91
2023/03/28 05:10:20;;;;;;;6.53;3.70;;;;;;;;;;5050800;28;20223;-92
2023/03/28 05:12:47;;;;;;;6.97;3.33;;;;;;;;;;5041661;28;20199;-94
2023/03/28 05:15:15;;;;;;;7.27;3.00;;;;;;;;;;5042469;28;20208;-96
2023/03/28 05:17:43;;;;;;;4.73;3.03;;;;;;;;;;5034897;28;20199;-91
2023/03/28 05:20:12;;;;;;;7.23;4.37;;;;;;;;;;5056139;28;20242;-94
2023/03/28 05:22:39;;;;;;;6.87;3.37;;;;;;;;;;5047039;28;20212;-93
2023/03/28 05:25:07;;;;;;;6.77;3.10;;;;;;;;;;5043926;28;20220;-93
2023/03/28 05:27:37;;;;;;;6.77;3.03;;;;;;;;;;5048990;28;20290;-92
2023/03/28 05:30:04;;;;;;;7.60;3.30;;;;;;;;;;5044268;28;20199;-91
2023/03/28 05:32:32;;;;;;;5.47;3.20;;;;;;;;;;5045484;28;20207;-94
2023/03/28 05:35:01;;;;;;;4.53;3.53;;;;;;;;;;5045654;28;20219;-94
2023/03/28 05:37:29;;;;;;;6.50;3.67;;;;;;;;;;5041662;28;20211;-93
2023/03/28 05:39:56;;;;;;;6.20;3.30;;;;;;;;;;5051785;28;20227;-92
2023/03/28 05:42:23;;;;;;;7.63;3.40;;;;;;;;;;5045608;28;20203;-92
2023/03/28 05:44:51;;;;;;;4.67;3.20;;;;;;;;;;5049443;28;20227;-93
2023/03/28 05:47:19;;;;;;;6.53;3.13;;;;;;;;;;5045923;28;20290;-94
2023/03/28 05:49:47;;;;;;;5.73;2.83;;;;;;;;;;5042072;28;20196;-93
2023/03/28 05:52:16;;;;;;;4.47;3.13;;;;;;;;;;5032996;28;20305;-93
2023/03/28 05:54:43;;;;;;;4.93;3.20;;;;;;;;;;5038911;28;20212;-94
2023/03/28 05:57:12;;;;;;;5.70;3.10;;;;;;;;;;5046586;28;20214;-92
2023/03/28 05:59:41;;;;;;;5.37;2.93;;;;;;;;;;5050026;28;20254;-94
2023/03/28 06:02:12;;;;;;;8.43;3.90;;;;;;;;;;5051679;28;20215;-94
2023/03/28 06:04:39;;;;;;;8.20;4.00;;;;;;;;;;5049836;28;20227;-93
2023/03/28 06:07:07;;;;;;;8.90;4.00;;;;;;;;;;5041540;28;20302;-94
2023/03/28 06:09:36;;;;;;;8.30;4.70;;;;;;;;;;5047906;28;20207;-93
2023/03/28 06:12:04;;;;;;;7.90;4.50;;;;;;;;;;5047315;28;20207;-94
2023/03/28 06:14:32;;;;;;;7.97;4.80;;;;;;;;;;5051567;28;20286;-94
2023/03/28 06:17:00;;;;;;;11.33;5.20;;;;;;;;;;5053339;28;20210;-93
2023/03/28 06:19:27;;;;;;;10.00;5.17;;;;;;;;;;5049907;28;20231;-94
2023/03/28 06:21:55;;;;;;;7.90;5.27;;;;;;;;;;5042047;28;20222;-94
2023/03/28 06:24:23;;;;;;;9.47;4.97;;;;;;;;;;5052385;28;20219;-92
2023/03/28 06:26:52;;;;;;;7.73;4.57;;;;;;;;;;5047097;28;20214;-93
2023/03/28 06:29:20;;;;;;;6.27;4.53;;;;;;;;;;5053143;28;20199;-94
2023/03/28 06:31:50;;;;;;;8.63;4.33;;;;;;;;;;5041859;28;20203;-90
2023/03/28 06:34:17;;;;;;;7.13;4.40;;;;;;;;;;5054665;28;20210;-93
2023/03/28 06:36:45;;;;;;;6.73;4.63;;;;;;;;;;5051871;28;20222;-94
2023/03/28 06:39:13;;;;;;;8.07;4.80;;;;;;;;;;5050778;28;20219;-94
2023/03/28 06:41:41;;;;;;;10.90;5.23;;;;;;;;;;5045967;28;20200;-93
2023/03/28 06:44:10;;;;;;;8.33;5.00;;;;;;;;;;5054090;28;20234;-94
2023/03/28 06:46:39;;;;;;;11.47;5.00;;;;;;;;;;5048298;28;20211;-93
2023/03/28 06:49:07;;;;;;;5.57;4.20;;;;;;;;;;5047762;28;20294;-94
2023/03/28 06:51:35;;;;;;;8.37;4.90;;;;;;;;;;5046246;28;20297;-92
2023/03/28 06:54:02;;;;;;;8.03;4.70;;;;;;;;;;5044167;28;20235;-94
2023/03/28 06:56:30;;;;;;;6.80;4.47;;;;;;;;;;5051963;28;20235;-94
2023/03/28 06:58:58;;;;;;;8.33;4.60;;;;;;;;;;5041411;28;20207;-93
2023/03/28 07:01:28;;;;;;;8.93;4.83;;;;;;;;;;5050532;28;20225;-94
2023/03/28 07:03:58;;;;;;;6.63;4.20;;;;;;;;;;5051148;28;20282;-93
2023/03/28 07:06:26;;;;;;;5.90;3.80;;;;;;;;;;5052468;28;20211;-92
2023/03/28 07:08:54;;;;;;;6.33;3.67;;;;;;;;;;5046749;28;20200;-95
2023/03/28 07:11:22;;;;;;;8.17;3.73;;;;;;;;;;5050303;28;20203;-94
2023/03/28 07:13:50;;;;;;;5.83;3.30;;;;;;;;;;5041484;28;20258;-92
2023/03/28 07:16:18;;;;;;;6.03;3.60;;;;;;;;;;5044763;28;20286;-92
2023/03/28 07:18:47;;;;;;;6.27;3.53;;;;;;;;;;5045435;28;20207;-93
2023/03/28 07:21:16;;;;;;;8.07;3.63;;;;;;;;;;5052429;28;20231;-93
2023/03/28 07:23:44;;;;;;;6.20;3.80;;;;;;;;;;5055513;28;20222;-94
2023/03/28 07:26:13;;;;;;;6.10;3.33;;;;;;;;;;5047366;28;20300;-93
2023/03/28 07:28:41;;;;;;;8.43;3.47;;;;;;;;;;5043261;28;20192;-92
2023/03/28 07:31:09;;;;;;;6.57;4.00;;;;;;;;;;5048096;28;20214;-93
2023/03/28 07:33:37;;;;;;;7.07;3.67;;;;;;;;;;5040643;28;20214;-93
2023/03/28 07:36:11;;;;;;;8.50;4.43;;;;;;;;;;5042932;28;20207;-93
2023/03/28 07:38:38;;;;;;;8.63;4.30;;;;;;;;;;5047478;28;20222;-93
2023/03/28 07:41:06;;;;;;;6.00;4.10;;;;;;;;;;5038079;28;20212;-93
2023/03/28 07:43:34;;;;;;;6.97;4.97;;;;;;;;;;5062088;28;20203;-93
2023/03/28 07:46:02;;;;;;;9.87;5.93;;;;;;;;;;5041387;28;20262;-92
2023/03/28 07:48:30;;;;;;;7.10;4.60;;;;;;;;;;5045394;28;20257;-93
2023/03/28 07:50:58;;;;;;;9.97;3.67;;;;;;;;;;5045764;28;20196;-94
2023/03/28 07:53:27;;;;;;;3.97;3.23;;;;;;;;;;5043377;28;20196;-93
2023/03/28 07:55:55;;;;;;;7.17;3.50;;;;;;;;;;5043045;28;20204;-93
2023/03/28 07:58:22;;;;;;;7.30;3.80;;;;;;;;;;5041968;28;20208;-93
2023/03/28 08:00:50;;;;;;;5.83;3.43;;;;;;;;;;5047229;28;20221;-93
2023/03/28 08:03:17;;;;;;;4.47;3.03;;;;;;;;;;5044931;28;20261;-94
2023/03/28 08:05:50;;;;;;;6.40;3.23;;;;;;;;;;5049724;28;20226;-94
2023/03/28 08:08:18;;;;;;;7.87;3.20;;;;;;;;;;5052883;28;20207;-94
2023/03/28 08:10:49;;;;;;;6.67;2.97;;;;;;;;;;5043941;28;20222;-93
2023/03/28 08:13:19;;;;;;;8.23;3.30;;;;;;;;;;5050925;28;20206;-94
2023/03/28 08:15:49;;;;;;;5.37;2.67;;;;;;;;;;5041749;28;20217;-93
2023/03/28 08:18:19;;;;;;;5.40;2.90;;;;;;;;;;5052342;28;20203;-94
2023/03/28 08:20:47;;;;;;;6.17;2.60;;;;;;;;;;5053113;28;20234;-94
2023/03/28 08:23:14;;;;;;;5.07;2.73;;;;;;;;;;5042047;28;20291;-93
2023/03/28 08:25:42;;;;;;;6.83;2.30;;;;;;;;;;5036755;28;20230;-93
2023/03/28 08:28:11;;;;;;;4.63;2.30;;;;;;;;;;5036731;28;20269;-94
2023/03/28 08:30:38;;;;;;;4.13;1.70;;;;;;;;;;5039374;28;20212;-92
2023/03/28 08:33:06;;;;;;;4.53;2.10;;;;;;;;;;5037707;28;20208;-93
2023/03/28 08:35:34;;;;;;;5.10;2.30;;;;;;;;;;5046269;28;20203;-93
2023/03/28 08:38:04;;;;;;;4.10;2.77;;;;;;;;;;5038946;28;20287;-94
2023/03/28 08:40:31;;;;;;;5.63;2.30;;;;;;;;;;5039059;28;20204;-94
2023/03/28 08:43:07;;;;;;;5.60;2.33;;;;;;;;;;5048302;28;20191;-93
2023/03/28 08:45:44;;;;;;;3.97;2.10;;;;;;;;;;5050173;28;20253;-92
2023/03/28 08:48:23;;;;;;;4.83;2.17;;;;;;;;;;5060553;28;20203;-92
2023/03/28 08:50:52;;;;;;;6.30;2.00;;;;;;;;;;5046962;28;20257;-93
2023/03/28 08:53:25;;;;;;;4.07;2.50;;;;;;;;;;5050483;28;20203;-93
2023/03/28 08:55:53;;;;;;;6.87;2.30;;;;;;;;;;5048202;28;20242;-93
2023/03/28 08:58:22;;;;;;;4.70;2.13;;;;;;;;;;5044694;28;20207;-93
2023/03/28 09:00:55;;;;;;;5.63;2.13;;;;;;;;;;5038175;28;20208;-93
2023/03/28 09:03:23;;;;;;;4.57;1.90;;;;;;;;;;5048969;28;20240;-93
2023/03/28 09:05:53;;;;;;;5.17;2.40;;;;;;;;;;5040415;28;20228;-92
2023/03/28 09:08:28;;;;;;;4.77;2.20;;;;;;;;;;5041913;28;20211;-91
2023/03/28 09:10:58;;;;;;;3.67;2.10;;;;;;;;;;5042939;28;20248;-91
2023/03/28 09:13:30;;;;;;;4.40;2.00;;;;;;;;;;5037143;28;20215;-93
2023/03/28 09:16:17;;;;;;;5.73;2.03;;;;;;;;;;5040735;28;20220;-93
2023/03/28 09:18:56;;;;;;;5.03;2.00;;;;;;;;;;5039737;28;20211;-91
2023/03/28 09:21:29;;;;;;;5.23;2.37;;;;;;;;;;5035001;28;20235;-88
2023/03/28 09:24:01;;;;;;;5.07;1.50;;;;;;;;;;5043649;28;20200;-92
2023/03/28 09:26:34;;;;;;;4.87;1.83;;;;;;;;;;5044463;28;20212;-90
2023/03/28 09:29:03;;;;;;;5.33;1.77;;;;;;;;;;5053953;28;20207;-93
2023/03/28 09:31:33;;;;;;;3.17;1.93;;;;;;;;;;5042149;28;20227;-90
2023/03/28 09:34:03;;;;;;;4.57;1.47;;;;;;;;;;5046847;28;20204;-92
2023/03/28 09:36:32;;;;;;;4.37;1.37;;;;;;;;;;5041417;28;20215;-92
2023/03/28 09:39:00;;;;;;;4.50;1.50;;;;;;;;;;5053391;28;20212;-92
2023/03/28 09:41:30;;;;;;;3.63;1.40;;;;;;;;;;5056498;28;20192;-92
2023/03/28 09:43:58;;;;;;;2.80;1.70;;;;;;;;;;5044730;28;20206;-92
2023/03/28 09:46:30;;;;;;;3.67;1.90;;;;;;;;;;5044691;28;20278;-93
2023/03/28 09:48:58;;;;;;;2.70;1.70;;;;;;;;;;5054140;28;20217;-93
2023/03/28 09:51:27;;;;;;;4.30;1.50;;;;;;;;;;5051853;28;20207;-92
2023/03/28 09:53:55;;;;;;;4.63;1.60;;;;;;;;;;5040870;28;20211;-93
2023/03/28 09:56:26;;;;;;;2.00;1.30;;;;;;;;;;5055382;28;20277;-91
2023/03/28 09:58:54;;;;;;;4.30;1.40;;;;;;;;;;5044791;28;20215;-91
2023/03/28 10:01:35;;;;;;;5.03;1.83;;;;;;;;;;5044547;28;20241;-92
2023/03/28 10:04:02;;;;;;;9.50;2.00;;;;;;;;;;5045728;28;20192;-93
2023/03/28 10:06:32;;;;;;;6.10;1.80;;;;;;;;;;5038358;28;20231;-91
2023/03/28 10:09:10;;;;;;;7.60;1.80;;;;;;;;;;5046967;28;20247;-92
2023/03/28 10:11:53;;;;;;;2.67;1.60;;;;;;;;;;5038851;28;20212;-91
2023/03/28 10:14:34;;;;;;;6.47;1.80;;;;;;;;;;5047711;28;20282;-93
2023/03/28 10:17:03;;;;;;;6.57;2.20;;;;;;;;;;5046365;28;20204;-92
2023/03/28 10:19:32;;;;;;;3.53;1.93;;;;;;;;;;5041580;28;20239;-91
2023/03/28 10:22:03;;;;;;;5.07;1.93;;;;;;;;;;5043613;28;20211;-91
2023/03/28 10:24:31;;;;;;;4.87;2.30;;;;;;;;;;5045957;28;20203;-93
2023/03/28 10:26:59;;;;;;;5.17;2.10;;;;;;;;;;5056062;28;20211;-93
2023/03/28 10:29:27;;;;;;;2.97;1.80;;;;;;;;;;5048979;28;20208;-92
2023/03/28 10:31:54;;;;;;;4.80;2.30;;;;;;;;;;5045395;28;20204;-93
2023/03/28 10:34:25;;;;;;;5.83;2.00;;;;;;;;;;5050916;28;20198;-92
2023/03/28 10:36:53;;;;;;;3.03;2.10;;;;;;;;;;5041661;28;20208;-92
2023/03/28 10:39:23;;;;;;;6.87;1.90;;;;;;;;;;5046794;28;20210;-91
2023/03/28 10:41:55;;;;;;;3.73;1.90;;;;;;;;;;5049096;28;20215;-93
2023/03/28 10:44:27;;;;;;;3.00;1.77;;;;;;;;;;5050499;28;20269;-93
2023/03/28 10:46:56;;;;;;;3.07;1.93;;;;;;;;;;5043462;28;20220;-92
2023/03/28 10:49:23;;;;;;;4.80;2.87;;;;;;;;;;5044603;28;20211;-90
2023/03/28 10:51:51;;;;;;;3.73;1.97;;;;;;;;;;5041534;28;20200;-92
2023/03/28 10:54:24;;;;;;;5.17;2.00;;;;;;;;;;5044653;28;20200;-92
2023/03/28 10:56:55;;;;;;;5.93;1.80;;;;;;;;;;5042768;28;20295;-94
2023/03/28 10:59:35;;;;;;;4.63;1.83;;;;;;;;;;5052235;28;20202;-91
2023/03/28 11:02:15;;;;;;;3.27;1.77;;;;;;;;;;5054495;28;20210;-93
2023/03/28 11:04:51;;;;;;;6.30;2.20;;;;;;;;;;5048639;28;20195;-92
2023/03/28 11:07:22;;;;;;;4.10;1.90;;;;;;;;;;5047718;28;20272;-92
2023/03/28 11:09:58;;;;;;;4.63;2.03;;;;;;;;;;5041654;28;20200;-93
2023/03/28 11:12:34;;;;;;;6.83;2.10;;;;;;;;;;5046769;28;20215;-92
2023/03/28 11:15:07;;;;;;;4.63;1.93;;;;;;;;;;5041549;28;20199;-92
2023/03/28 11:17:40;;;;;;;5.63;1.90;;;;;;;;;;5043039;28;20204;-90
2023/03/28 11:20:17;;;;;;;4.77;1.90;;;;;;;;;;5038302;28;20239;-91
2023/03/28 11:22:51;;;;;;;2.83;1.80;;;;;;;;;;5046375;28;20200;-91
2023/03/28 11:25:22;;;;;;;3.00;1.80;;;;;;;;;;5043372;28;20204;-92
2023/03/28 11:27:53;;;;;;;4.87;2.10;;;;;;;;;;5041109;28;20203;-90
2023/03/28 11:30:21;;;;;;;3.20;2.10;;;;;;;;;;5046682;28;20200;-91
2023/03/28 11:32:51;;;;;;;4.67;2.20;;;;;;;;;;5047959;28;20211;-91
2023/03/28 11:35:25;;;;;;;3.47;2.00;;;;;;;;;;5040646;28;20208;-90
2023/03/28 11:37:58;;;;;;;3.20;1.80;;;;;;;;;;5049778;28;20191;-90
2023/03/28 11:40:29;;;;;;;3.30;2.13;;;;;;;;;;5050500;28;20305;-90
2023/03/28 11:42:57;;;;;;;4.80;2.20;;;;;;;;;;5053371;28;20238;-91
2023/03/28 11:45:27;;;;;;;6.03;2.20;;;;;;;;;;5036283;28;20204;-89
2023/03/28 11:47:58;;;;;;;2.70;1.80;;;;;;;;;;5045676;28;20215;-90
2023/03/28 11:50:28;;;;;;;4.07;2.10;;;;;;;;;;5034862;28;20207;-90
2023/03/28 11:52:58;;;;;;;3.80;2.00;;;;;;;;;;5049387;28;20196;-90
2023/03/28 11:55:29;;;;;;;2.27;2.07;;;;;;;;;;5035812;28;20434;-89
2023/03/28 11:58:00;;;;;;;4.93;2.20;;;;;;;;;;5050959;28;20214;-90
2023/03/28 12:00:29;;;;;;;5.27;1.90;;;;;;;;;;5050380;28;20211;-90
2023/03/28 12:03:00;;;;;;;4.40;2.20;;;;;;;;;;5059904;28;20202;-90
2023/03/28 12:05:31;;;;;;;4.17;2.30;;;;;;;;;;5049460;28;20195;-90
2023/03/28 12:08:04;;;;;;;4.43;2.20;;;;;;;;;;5048138;28;20211;-89
2023/03/28 12:10:35;;;;;;;6.53;2.30;;;;;;;;;;5051915;28;20206;-90
2023/03/28 12:13:06;;;;;;;4.47;2.07;;;;;;;;;;5044989;28;20208;-90
2023/03/28 12:15:37;;;;;;;2.73;1.93;;;;;;;;;;5038411;28;20199;-90
2023/03/28 12:18:06;;;;;;;3.67;1.70;;;;;;;;;;5043710;28;20203;-90
2023/03/28 12:20:37;;;;;;;2.67;1.93;;;;;;;;;;5050220;28;20231;-90
2023/03/28 12:23:08;;;;;;;5.77;2.50;;;;;;;;;;5038320;28;20211;-91
2023/03/28 12:25:42;;;;;;;3.47;1.90;;;;;;;;;;5046924;28;20241;-91
2023/03/28 12:28:12;;;;;;;2.87;2.00;;;;;;;;;;5055609;28;20198;-90
2023/03/28 12:30:41;;;;;;;3.03;1.90;;;;;;;;;;5042431;28;20192;-89
2023/03/28 12:33:13;;;;;;;4.70;2.33;;;;;;;;;;5052748;28;20203;-89
2023/03/28 12:35:43;;;;;;;3.53;1.90;;;;;;;;;;5038217;28;20200;-90
2023/03/28 12:38:18;;;;;;;3.47;2.10;;;;;;;;;;5038697;28;20216;-89
2023/03/28 12:41:04;;;;;;;3.67;2.20;;;;;;;;;;5042231;28;20213;-91
2023/03/28 12:43:37;;;;;;;3.33;2.27;;;;;;;;;;5039011;28;20291;-92
2023/03/28 12:46:06;;;;;;;5.47;2.30;;;;;;;;;;5049672;28;20231;-93
2023/03/28 12:48:37;;;;;;;4.17;1.87;;;;;;;;;;5049668;28;20187;-93
2023/03/28 12:51:08;;;;;;;2.80;2.00;;;;;;;;;;5049001;28;20196;-91
2023/03/28 12:53:40;;;;;;;3.93;1.97;;;;;;;;;;5045293;28;20196;-93
2023/03/28 12:56:10;;;;;;;3.93;2.10;;;;;;;;;;5047991;28;20200;-93
2023/03/28 12:58:38;;;;;;;6.07;1.93;;;;;;;;;;5044279;28;20280;-92
2023/03/28 13:01:19;;;;;;;3.37;1.80;;;;;;;;;;5042288;28;20200;-92
2023/03/28 13:03:56;;;;;;;4.83;2.10;;;;;;;;;;5037503;28;20200;-94
2023/03/28 13:06:28;;;;;;;4.90;2.10;;;;;;;;;;5045368;28;20218;-91
2023/03/28 13:09:04;;;;;;;2.27;1.83;;;;;;;;;;5048571;28;20290;-91
2023/03/28 13:11:38;;;;;;;3.97;1.63;;;;;;;;;;5050229;28;20200;-93
2023/03/28 13:14:12;;;;;;;2.70;1.70;;;;;;;;;;5049738;28;20192;-90
2023/03/28 13:16:44;;;;;;;5.43;2.17;;;;;;;;;;5042776;28;20202;-93
2023/03/28 13:19:13;;;;;;;2.87;1.60;;;;;;;;;;5048172;28;20210;-93
2023/03/28 13:21:45;;;;;;;2.97;2.20;;;;;;;;;;5051599;28;20203;-92
2023/03/28 13:24:29;;;;;;;2.50;1.60;;;;;;;;;;5047983;28;20210;-93
2023/03/28 13:26:59;;;;;;;5.23;1.90;;;;;;;;;;5056467;28;20296;-91
2023/03/28 13:29:43;;;;;;;2.93;1.70;;;;;;;;;;5050383;28;20278;-89
2023/03/28 13:32:12;;;;;;;5.30;2.20;;;;;;;;;;5054550;28;20195;-93
2023/03/28 13:34:40;;;;;;;2.20;1.90;;;;;;;;;;5050213;28;20204;-93
2023/03/28 13:37:19;;;;;;;3.13;1.80;;;;;;;;;;5041464;28;20231;-89
2023/03/28 13:39:51;;;;;;;2.90;1.77;;;;;;;;;;5050127;28;20195;-93
2023/03/28 13:42:31;;;;;;;4.50;1.70;;;;;;;;;;5043624;28;20215;-95
2023/03/28 13:45:00;;;;;;;3.37;2.00;;;;;;;;;;5045115;28;20305;-90
2023/03/28 13:47:32;;;;;;;2.43;2.10;;;;;;;;;;5052257;28;20302;-93
2023/03/28 13:50:02;;;;;;;3.63;2.00;;;;;;;;;;5047757;28;20231;-93
2023/03/28 13:52:29;;;;;;;3.37;1.73;;;;;;;;;;5044598;28;20235;-95
2023/03/28 13:55:04;;;;;;;3.20;1.87;;;;;;;;;;5047822;28;20258;-94
2023/03/28 13:57:32;;;;;;;2.63;1.80;;;;;;;;;;5047841;28;20193;-96
2023/03/28 14:00:01;;;;;;;3.23;1.77;;;;;;;;;;5049760;28;20204;-96
2023/03/28 14:02:32;;;;;;;2.40;1.67;;;;;;;;;;5044507;28;20200;-93
2023/03/28 14:05:05;;;;;;;3.33;1.90;;;;;;;;;;5040981;28;20204;-93
2023/03/28 14:07:32;;;;;;;3.73;2.00;;;;;;;;;;5052731;28;20204;-94
2023/03/28 14:09:59;;;;;;;3.23;2.00;;;;;;;;;;5052449;28;20218;-93
2023/03/28 14:12:30;;;;;;;3.43;1.63;;;;;;;;;;5046446;28;20222;-96
2023/03/28 14:14:59;;;;;;;4.17;1.70;;;;;;;;;;5052292;28;20199;-91
2023/03/28 14:17:28;;;;;;;2.40;1.60;;;;;;;;;;5051020;28;20208;-93
2023/03/28 14:19:57;;;;;;;3.27;1.90;;;;;;;;;;5035423;28;20239;-91
2023/03/28 14:22:26;;;;;;;1.70;1.40;;;;;;;;;;5048426;28;20204;-93
2023/03/28 14:24:54;;;;;;;2.13;1.40;;;;;;;;;;5043354;28;20199;-96
2023/03/28 14:27:39;;;;;;;1.40;1.10;;;;;;;;;;5049419;28;20227;-93
2023/03/28 14:30:17;;;;;;;2.83;1.43;;;;;;;;;;5037895;28;20257;-89
2023/03/28 14:32:53;;;;;;;1.80;1.60;;;;;;;;;;5042045;28;20201;-88
2023/03/28 14:35:21;;;;;;;3.37;1.57;;;;;;;;;;5038982;28;20208;-88
2023/03/28 14:37:49;;;;;;;3.60;1.67;;;;;;;;;;5045286;28;20204;-88
2023/03/28 14:40:17;;;;;;;2.57;1.67;;;;;;;;;;5039017;28;20208;-88
2023/03/28 14:42:45;;;;;;;4.03;1.50;;;;;;;;;;5052399;28;20195;-89
2023/03/28 14:45:14;;;;;;;3.63;1.53;;;;;;;;;;5045347;28;20242;-88
2023/03/28 14:47:42;;;;;;;2.17;1.60;;;;;;;;;;5050038;28;20223;-88
2023/03/28 14:50:14;;;;;;;2.87;1.53;;;;;;;;;;5042337;28;20283;-88
2023/03/28 14:52:43;;;;;;;3.60;1.70;;;;;;;;;;5038818;28;20199;-88
2023/03/28 14:55:15;;;;;;;2.33;1.83;;;;;;;;;;5041786;28;20206;-88
2023/03/28 14:57:44;;;;;;;4.13;1.77;;;;;;;;;;5040428;28;20199;-88
2023/03/28 15:00:14;;;;;;;2.70;1.90;;;;;;;;;;5046402;28;20265;-88